首页
METAR-TAF:

METAR-TAF

机场 :

聖迪濟耶, 法国

纬度: 48-38N, 经度: 004-54E, 海拔: 139米

当前天气观测

该预报发布于33分钟前的06:30 UTC
静风
温度 -2°C
湿度 100%
气压 1009 hPa
能見度: 4800
轻雾

METAR: LFSI 170630Z AUTO 00000KT 4800 R11/1300U BR NSC M02/M02 Q1009

时间: 08:03 (07:03 UTC)

预报

该预报发布于3小时和6分钟前的03:57 UTC
预报有效从17日的 03点(UTC)到 18日的 03点(UTC)
风速5节,风向
能见度10公里或以上
1500米以下无云,无积雨云
短暂存在
从 17日的 03点(UTC)到 17日的 09点(UTC)
能見度: 2000
轻雾
短暂存在
从 17日的 05点(UTC)到 17日的 09点(UTC)
能見度: 0800
成为
从 17日的 09点(UTC)到 17日的 11点(UTC)
多云层高于1000英尺

TAF: LFSI 170357Z 1703/1803 08005KT CAVOK TEMPO 1703/1709 2000 BR TEMPO 1705/1709 0800 FG BECMG 1709/1711 BKN010

超过4000个机场的气象观测和天气预报(METAR&TAF报告)。

可查询的气象台以黄色和红色小点在地图上表示。

将鼠标移到小点上方,可查看气象台名称。

然后点击查看天气观测和预报。

如需切换地图:点击带黑十字的绿色按钮放大地图;点击带横线的绿色按钮缩小地图;或者点击绿色箭头查看邻近地区的地图。


METAR-TAF: